Time;durP1;ratioP1;P1;durP2;ratioP2;P2;SDS_P1;SDS_P2;PMS_P1;PMS_P2;Temp;Humidity;BMP_temperature;BMP_pressure;BME280_temperature;BME280_humidity;BME280_pressure;Samples;Min_cycle;Max_cycle;Signal;HPM_P1;HPM_P2
2024/03/23 00:00:28;;;;;;;20.75;3.92;;;8.20;99.90;;;;;;5017427;28;20042;-72
2024/03/23 00:02:55;;;;;;;22.50;4.25;;;8.10;99.90;;;;;;5014677;28;20037;-72
2024/03/23 00:05:21;;;;;;;15.45;4.00;;;8.20;99.90;;;;;;4995886;28;20041;-70
2024/03/23 00:07:48;;;;;;;24.70;4.95;;;8.20;99.90;;;;;;5015748;28;20292;-73
2024/03/23 00:10:15;;;;;;;30.58;5.45;;;8.20;99.90;;;;;;5011701;28;20049;-69
2024/03/23 00:12:42;;;;;;;21.08;3.83;;;8.20;99.90;;;;;;5005672;28;20104;-71
2024/03/23 00:15:09;;;;;;;18.25;4.47;;;8.20;99.90;;;;;;4996753;28;20052;-72
2024/03/23 00:17:35;;;;;;;15.25;4.60;;;8.20;99.90;;;;;;5002756;28;20507;-72
2024/03/23 00:20:02;;;;;;;30.88;4.90;;;8.20;99.90;;;;;;5006049;28;20738;-72
2024/03/23 00:22:30;;;;;;;19.45;3.58;;;8.20;99.90;;;;;;4999559;28;20037;-72
2024/03/23 00:24:57;;;;;;;23.92;4.55;;;8.20;99.90;;;;;;5004993;28;20054;-71
2024/03/23 00:27:23;;;;;;;22.73;3.83;;;8.20;99.90;;;;;;5007772;28;20033;-72
2024/03/23 00:29:50;;;;;;;20.55;5.47;;;8.20;99.90;;;;;;5004531;28;20097;-72
2024/03/23 00:32:17;;;;;;;19.38;4.10;;;8.20;99.90;;;;;;5006165;28;20040;-73
2024/03/23 00:34:43;;;;;;;23.05;5.13;;;8.20;99.90;;;;;;5005934;28;20035;-71
2024/03/23 00:37:10;;;;;;;20.42;3.80;;;8.20;99.90;;;;;;5004348;28;20049;-71
2024/03/23 00:39:37;;;;;;;18.05;4.45;;;8.20;99.90;;;;;;4988625;28;20041;-70
2024/03/23 00:42:03;;;;;;;19.67;3.78;;;8.20;99.90;;;;;;5013693;28;20033;-71
2024/03/23 00:44:30;;;;;;;17.08;4.88;;;8.20;99.90;;;;;;4991794;28;20029;-72
2024/03/23 00:46:57;;;;;;;15.60;3.55;;;8.20;99.90;;;;;;5007913;28;20403;-72
2024/03/23 00:49:23;;;;;;;19.73;4.38;;;8.20;99.90;;;;;;5008120;28;20041;-70
2024/03/23 00:51:49;;;;;;;16.73;3.45;;;8.20;99.90;;;;;;5006831;28;20065;-72
2024/03/23 00:54:14;;;;;;;9.10;3.05;;;8.20;99.90;;;;;;4993520;28;20057;-71
2024/03/23 00:56:40;;;;;;;16.00;3.60;;;8.20;99.90;;;;;;5006204;28;20093;-71
2024/03/23 00:59:05;;;;;;;18.67;3.83;;;8.10;99.90;;;;;;5006343;28;20038;-72
2024/03/23 01:01:31;;;;;;;21.73;5.65;;;8.10;99.90;;;;;;5006717;28;20038;-72
2024/03/23 01:03:57;;;;;;;16.95;4.00;;;8.10;99.90;;;;;;5011176;28;20030;-72
2024/03/23 01:06:22;;;;;;;14.68;3.92;;;8.10;99.90;;;;;;4993661;28;20124;-71
2024/03/23 01:08:48;;;;;;;13.43;3.30;;;8.10;99.90;;;;;;5008417;28;20030;-70
2024/03/23 01:11:13;;;;;;;11.45;3.47;;;8.10;99.90;;;;;;5016786;28;20026;-70
2024/03/23 01:13:39;;;;;;;20.70;5.28;;;8.00;99.90;;;;;;4985301;28;20030;-70
2024/03/23 01:16:05;;;;;;;19.83;4.07;;;8.00;99.90;;;;;;5017751;28;20107;-72
2024/03/23 01:18:30;;;;;;;13.55;2.83;;;8.00;99.90;;;;;;5011070;28;20033;-71
2024/03/23 01:20:56;;;;;;;15.40;3.13;;;8.00;99.90;;;;;;5011312;28;20129;-71
2024/03/23 01:23:22;;;;;;;19.42;4.22;;;7.90;99.90;;;;;;5010162;28;20454;-72
2024/03/23 01:25:54;;;;;;;12.57;3.80;;;7.80;99.90;;;;;;5009195;28;20832;-72
2024/03/23 01:28:21;;;;;;;20.15;3.88;;;7.70;99.90;;;;;;5012820;28;20123;-72
2024/03/23 01:30:46;;;;;;;20.92;2.58;;;7.70;99.90;;;;;;4993808;28;20043;-72
2024/03/23 01:33:12;;;;;;;14.63;3.08;;;7.60;99.90;;;;;;5016255;28;20049;-70
2024/03/23 01:35:38;;;;;;;15.13;3.75;;;7.50;99.90;;;;;;5017510;28;20504;-70
2024/03/23 01:38:04;;;;;;;15.20;3.25;;;7.50;99.90;;;;;;5015971;28;20038;-71
2024/03/23 01:40:32;;;;;;;22.13;3.65;;;7.40;99.90;;;;;;5007038;28;20546;-71
2024/03/23 01:43:01;;;;;;;15.45;3.78;;;7.40;99.90;;;;;;5009111;28;20064;-72
2024/03/23 01:45:27;;;;;;;10.30;2.88;;;7.30;99.90;;;;;;5015779;28;20117;-72
2024/03/23 01:47:53;;;;;;;19.02;3.13;;;7.30;99.90;;;;;;5011264;28;20465;-71
2024/03/23 01:50:20;;;;;;;12.90;2.45;;;7.20;99.90;;;;;;4997366;28;20125;-71
2024/03/23 01:52:47;;;;;;;12.90;2.60;;;7.20;99.90;;;;;;4993412;28;20508;-72
2024/03/23 01:55:12;;;;;;;16.65;3.85;;;7.10;99.90;;;;;;5012627;28;20064;-71
2024/03/23 01:57:38;;;;;;;18.40;4.43;;;7.10;99.90;;;;;;4994228;28;20747;-70
2024/03/23 02:00:04;;;;;;;17.83;3.88;;;7.10;99.90;;;;;;5013622;28;20814;-72
2024/03/23 02:02:30;;;;;;;20.63;3.10;;;7.00;99.90;;;;;;5011993;28;20073;-72
2024/03/23 02:04:56;;;;;;;10.55;2.78;;;7.00;99.90;;;;;;4994604;28;20054;-71
2024/03/23 02:07:23;;;;;;;19.80;4.57;;;6.90;99.90;;;;;;5013288;28;20120;-71
2024/03/23 02:09:49;;;;;;;11.80;2.55;;;6.90;99.90;;;;;;5010947;28;20042;-72
2024/03/23 02:12:15;;;;;;;12.88;2.97;;;6.90;99.90;;;;;;5011506;28;20042;-71
2024/03/23 02:14:41;;;;;;;12.48;3.33;;;6.90;99.90;;;;;;5016066;28;20057;-71
2024/03/23 02:17:06;;;;;;;12.77;2.83;;;6.80;99.90;;;;;;5012168;28;20061;-71
2024/03/23 02:19:32;;;;;;;13.05;3.80;;;6.80;99.90;;;;;;5011135;28;20431;-70
2024/03/23 02:21:58;;;;;;;18.85;3.70;;;6.70;99.90;;;;;;4992066;28;20037;-71
2024/03/23 02:24:23;;;;;;;12.73;3.13;;;6.70;99.90;;;;;;5016942;28;20494;-71
2024/03/23 02:26:49;;;;;;;14.30;3.28;;;6.60;99.90;;;;;;5013935;28;20038;-71
2024/03/23 02:29:15;;;;;;;11.73;2.92;;;6.60;99.90;;;;;;4998150;28;20048;-71
2024/03/23 02:31:40;;;;;;;16.15;2.83;;;6.60;99.90;;;;;;5010296;28;20056;-73
2024/03/23 02:34:06;;;;;;;13.98;2.33;;;6.60;99.90;;;;;;5013926;28;20037;-73
2024/03/23 02:36:31;;;;;;;22.00;2.80;;;6.50;99.90;;;;;;5011671;28;20026;-72
2024/03/23 02:38:57;;;;;;;11.93;3.53;;;6.50;99.90;;;;;;5013273;28;20045;-73
2024/03/23 02:41:23;;;;;;;17.40;3.05;;;6.40;99.90;;;;;;5013106;28;20030;-72
2024/03/23 02:43:52;;;;;;;16.00;2.50;;;6.40;99.90;;;;;;5009985;28;20042;-71
2024/03/23 02:46:17;;;;;;;20.92;4.28;;;6.30;99.90;;;;;;5015154;28;20041;-71
2024/03/23 02:48:44;;;;;;;15.53;3.53;;;6.30;99.90;;;;;;5011152;28;20033;-71
2024/03/23 02:51:09;;;;;;;19.88;4.85;;;6.30;99.90;;;;;;4996684;28;20128;-72
2024/03/23 02:53:35;;;;;;;18.00;3.63;;;6.20;99.90;;;;;;5011154;28;20121;-71
2024/03/23 02:56:01;;;;;;;9.30;2.42;;;6.20;99.90;;;;;;5011184;28;20083;-72
2024/03/23 02:58:27;;;;;;;12.93;2.33;;;6.20;99.90;;;;;;5016793;28;20053;-72
2024/03/23 03:00:52;;;;;;;9.20;2.80;;;6.10;99.90;;;;;;5013535;28;20042;-72
2024/03/23 03:03:18;;;;;;;20.52;3.90;;;6.10;99.90;;;;;;5015920;28;20117;-72
2024/03/23 03:05:44;;;;;;;17.75;2.20;;;6.10;99.90;;;;;;5013036;28;20026;-72
2024/03/23 03:08:09;;;;;;;14.65;2.97;;;6.00;99.90;;;;;;4999350;28;20477;-72
2024/03/23 03:10:36;;;;;;;10.95;2.53;;;6.00;99.90;;;;;;5012266;28;20041;-71
2024/03/23 03:13:02;;;;;;;10.80;2.28;;;6.00;99.90;;;;;;5001401;28;20505;-70
2024/03/23 03:15:28;;;;;;;10.05;2.58;;;5.90;99.90;;;;;;5012519;28;20033;-71
2024/03/23 03:17:54;;;;;;;9.48;1.90;;;5.90;99.90;;;;;;5016271;28;20042;-71
2024/03/23 03:20:21;;;;;;;9.30;2.90;;;5.90;99.90;;;;;;5015279;28;20046;-71
2024/03/23 03:22:47;;;;;;;12.07;1.55;;;5.80;99.90;;;;;;5016359;28;20103;-72
2024/03/23 03:25:13;;;;;;;11.02;2.97;;;5.80;99.90;;;;;;5016214;28;20033;-72
2024/03/23 03:27:38;;;;;;;10.18;1.70;;;5.80;99.90;;;;;;5013639;28;20542;-71
2024/03/23 03:30:05;;;;;;;17.58;2.97;;;5.70;99.90;;;;;;5014392;28;20042;-72
2024/03/23 03:32:32;;;;;;;12.35;2.40;;;5.70;99.90;;;;;;5003657;28;20495;-70
2024/03/23 03:34:58;;;;;;;13.27;1.75;;;5.70;99.90;;;;;;5007986;28;20045;-71
2024/03/23 03:37:24;;;;;;;16.38;3.28;;;5.60;99.90;;;;;;5006999;28;20050;-72
2024/03/23 03:39:50;;;;;;;14.30;2.42;;;5.60;99.90;;;;;;5005791;28;20041;-72
2024/03/23 03:42:16;;;;;;;12.60;2.65;;;5.60;99.90;;;;;;5007039;28;20404;-71
2024/03/23 03:44:41;;;;;;;6.88;1.75;;;5.60;99.90;;;;;;5007228;28;20518;-73
2024/03/23 03:47:07;;;;;;;11.45;2.75;;;5.50;99.90;;;;;;5004081;28;20045;-71
2024/03/23 03:49:33;;;;;;;17.90;1.88;;;5.50;99.90;;;;;;5010899;28;20030;-71
2024/03/23 03:51:58;;;;;;;9.90;1.15;;;5.50;99.90;;;;;;5004198;28;20034;-71
2024/03/23 03:54:24;;;;;;;10.32;1.42;;;5.50;99.90;;;;;;5010114;28;20033;-73
2024/03/23 03:56:49;;;;;;;4.90;1.92;;;5.50;99.90;;;;;;5006977;28;20037;-71
2024/03/23 03:59:15;;;;;;;8.43;1.52;;;5.50;99.90;;;;;;4999169;28;20042;-71
2024/03/23 04:01:41;;;;;;;8.10;1.45;;;5.40;99.90;;;;;;5006814;28;20095;-70
2024/03/23 04:04:07;;;;;;;11.15;2.28;;;5.50;99.90;;;;;;5004488;28;20034;-71
2024/03/23 04:06:33;;;;;;;8.73;1.30;;;5.40;99.90;;;;;;5010329;28;20038;-72
2024/03/23 04:08:59;;;;;;;9.13;2.67;;;5.40;99.90;;;;;;5004881;28;20042;-72
2024/03/23 04:11:24;;;;;;;19.90;2.25;;;5.40;99.90;;;;;;4994204;28;20112;-71
2024/03/23 04:13:50;;;;;;;10.18;1.20;;;5.40;99.90;;;;;;5005653;28;20037;-72
2024/03/23 04:16:30;;;;;;;8.73;1.60;;;5.30;99.90;;;;;;5009474;28;20067;-71
2024/03/23 04:18:55;;;;;;;9.15;1.88;;;5.30;99.90;;;;;;5003544;28;20092;-72
2024/03/23 04:21:22;;;;;;;8.18;1.45;;;5.30;99.90;;;;;;5012722;28;20033;-72
2024/03/23 04:23:48;;;;;;;8.15;1.70;;;5.30;99.90;;;;;;5004338;28;20039;-71
2024/03/23 04:26:15;;;;;;;11.52;1.17;;;5.20;99.90;;;;;;5011898;28;20085;-72
2024/03/23 04:28:40;;;;;;;9.32;1.50;;;5.20;99.90;;;;;;4989917;28;20117;-70
2024/03/23 04:31:06;;;;;;;17.10;3.70;;;5.20;99.90;;;;;;5008936;28;20125;-72
2024/03/23 04:33:32;;;;;;;8.25;1.25;;;5.20;99.90;;;;;;5011903;28;20057;-72
2024/03/23 04:35:57;;;;;;;7.32;1.20;;;5.20;99.90;;;;;;5007452;28;20044;-72
2024/03/23 04:38:23;;;;;;;12.15;1.20;;;5.20;99.90;;;;;;5015346;28;20034;-71
2024/03/23 04:40:59;;;;;;;9.00;1.33;;;5.20;99.90;;;;;;4992887;28;20038;-71
2024/03/23 04:43:25;;;;;;;7.13;0.98;;;5.10;99.90;;;;;;5016503;28;20394;-71
2024/03/23 04:45:51;;;;;;;11.60;1.25;;;5.10;99.90;;;;;;5016139;28;20108;-72
2024/03/23 04:48:17;;;;;;;6.80;1.00;;;5.10;99.90;;;;;;5016162;28;20030;-72
2024/03/23 04:50:43;;;;;;;7.93;1.58;;;5.10;99.90;;;;;;5009864;28;20030;-70
2024/03/23 04:53:08;;;;;;;4.82;1.10;;;5.10;99.90;;;;;;5014977;28;20099;-72
2024/03/23 04:55:34;;;;;;;5.38;1.95;;;5.00;99.90;;;;;;5014352;28;20033;-72
2024/03/23 04:58:00;;;;;;;5.35;1.85;;;5.10;99.90;;;;;;5009208;28;20034;-72
2024/03/23 05:00:26;;;;;;;7.35;1.77;;;5.00;99.90;;;;;;5015398;28;20038;-72
2024/03/23 05:02:52;;;;;;;7.65;1.75;;;5.00;99.90;;;;;;5012446;28;20115;-72
2024/03/23 05:05:18;;;;;;;12.85;1.02;;;5.00;99.90;;;;;;5017944;28;20035;-71
2024/03/23 05:07:44;;;;;;;8.27;1.42;;;5.00;99.90;;;;;;5011424;28;20034;-69
2024/03/23 05:10:13;;;;;;;11.20;1.92;;;5.00;99.90;;;;;;5012117;28;20815;-72
2024/03/23 05:12:39;;;;;;;6.75;1.65;;;5.10;99.90;;;;;;5013165;28;20494;-71
2024/03/23 05:15:05;;;;;;;10.82;1.13;;;5.00;99.90;;;;;;5016728;28;20044;-71
2024/03/23 05:17:32;;;;;;;8.25;1.45;;;5.10;99.90;;;;;;4997651;28;20045;-72
2024/03/23 05:19:57;;;;;;;4.82;0.90;;;5.10;99.90;;;;;;5012387;28;20037;-71
2024/03/23 05:22:23;;;;;;;6.60;1.10;;;5.10;99.90;;;;;;5013375;28;20033;-71
2024/03/23 05:24:49;;;;;;;7.28;1.08;;;5.10;99.90;;;;;;5009660;28;20574;-72
2024/03/23 05:27:15;;;;;;;10.70;0.90;;;5.00;99.90;;;;;;5014501;28;20531;-70
2024/03/23 05:29:40;;;;;;;10.27;1.00;;;5.00;99.90;;;;;;5015181;28;20033;-72
2024/03/23 05:32:06;;;;;;;7.32;1.00;;;5.00;99.90;;;;;;4988836;28;20034;-71
2024/03/23 05:34:32;;;;;;;5.18;0.93;;;5.00;99.90;;;;;;5014800;28;20117;-72
2024/03/23 05:36:58;;;;;;;6.45;1.25;;;5.10;99.90;;;;;;5012043;28;20435;-71
2024/03/23 05:39:24;;;;;;;2.72;0.90;;;5.10;99.90;;;;;;5010121;28;20037;-71
2024/03/23 05:41:49;;;;;;;6.40;1.77;;;5.10;99.90;;;;;;5012438;28;20079;-72
2024/03/23 05:44:15;;;;;;;8.60;1.73;;;5.20;99.90;;;;;;4998509;28;20484;-71
2024/03/23 05:46:41;;;;;;;6.40;1.30;;;5.20;99.90;;;;;;4997517;28;20135;-70
2024/03/23 05:49:07;;;;;;;7.18;1.10;;;5.20;99.90;;;;;;5012520;28;20567;-71
2024/03/23 05:51:33;;;;;;;6.00;1.65;;;5.20;99.90;;;;;;5015675;28;20148;-72
2024/03/23 05:53:58;;;;;;;8.27;0.88;;;5.20;99.90;;;;;;5009025;28;20424;-72
2024/03/23 05:56:26;;;;;;;5.85;1.02;;;5.20;99.90;;;;;;5010033;28;20028;-72
2024/03/23 05:58:51;;;;;;;12.23;1.15;;;5.20;99.90;;;;;;5007563;28;20044;-72
2024/03/23 06:01:17;;;;;;;5.38;1.35;;;5.10;99.90;;;;;;5012980;28;20026;-71
2024/03/23 06:03:43;;;;;;;8.73;1.10;;;5.10;99.90;;;;;;5007544;28;20030;-70
2024/03/23 06:06:11;;;;;;;8.80;1.15;;;5.20;99.90;;;;;;5014617;28;20062;-71
2024/03/23 06:08:37;;;;;;;11.63;0.80;;;5.20;99.90;;;;;;5011520;28;20120;-72
2024/03/23 06:11:06;;;;;;;7.82;1.33;;;5.30;99.90;;;;;;5015994;28;20486;-72
2024/03/23 06:13:31;;;;;;;7.15;1.48;;;5.40;99.90;;;;;;5016485;28;20039;-72
2024/03/23 06:15:58;;;;;;;20.67;1.67;;;5.50;99.90;;;;;;5010263;28;20030;-72
2024/03/23 06:18:24;;;;;;;7.15;0.90;;;5.60;99.90;;;;;;5017036;28;20041;-71
2024/03/23 06:20:52;;;;;;;9.15;1.25;;;5.60;99.90;;;;;;5009850;28;20048;-72
2024/03/23 06:23:19;;;;;;;9.00;1.20;;;5.70;99.90;;;;;;5001098;28;20037;-72
2024/03/23 06:25:45;;;;;;;18.42;1.65;;;5.80;99.90;;;;;;5017157;28;20026;-71
2024/03/23 06:28:11;;;;;;;8.60;1.45;;;5.90;99.90;;;;;;5015627;28;20100;-72
2024/03/23 06:30:37;;;;;;;10.27;1.25;;;6.00;99.90;;;;;;5015229;28;20041;-72
2024/03/23 06:33:02;;;;;;;5.43;1.60;;;6.00;99.90;;;;;;5006177;28;20040;-71
2024/03/23 06:35:28;;;;;;;7.80;1.83;;;6.00;99.90;;;;;;5016811;28;20033;-72
2024/03/23 06:37:54;;;;;;;3.00;0.80;;;6.10;99.90;;;;;;5007714;28;20040;-72
2024/03/23 06:40:19;;;;;;;5.57;1.05;;;6.10;99.90;;;;;;5017305;28;20037;-71
2024/03/23 06:42:45;;;;;;;10.82;1.35;;;6.20;99.90;;;;;;4998846;28;20095;-72
2024/03/23 06:45:10;;;;;;;8.13;1.20;;;6.20;99.90;;;;;;5013347;28;20034;-72
2024/03/23 06:47:36;;;;;;;11.80;1.23;;;6.30;99.90;;;;;;4997906;28;20478;-71
2024/03/23 06:50:03;;;;;;;10.13;1.55;;;6.40;99.90;;;;;;4992311;28;20045;-71
2024/03/23 06:52:29;;;;;;;6.80;1.45;;;6.50;99.90;;;;;;4993129;28;20060;-74
2024/03/23 06:54:55;;;;;;;10.90;1.58;;;6.60;99.90;;;;;;5010951;28;20137;-70
2024/03/23 06:57:21;;;;;;;8.68;1.60;;;6.80;99.90;;;;;;4999243;28;20470;-70
2024/03/23 06:59:47;;;;;;;7.57;1.23;;;7.00;99.90;;;;;;5012342;28;20045;-70
2024/03/23 07:02:12;;;;;;;8.25;1.80;;;7.20;99.90;;;;;;5004663;28;20042;-72
2024/03/23 07:04:39;;;;;;;5.13;1.52;;;7.30;99.90;;;;;;5009039;28;20570;-70
2024/03/23 07:07:05;;;;;;;7.72;1.23;;;7.40;99.90;;;;;;5007415;28;20057;-71
2024/03/23 07:09:31;;;;;;;11.75;2.50;;;7.60;99.90;;;;;;5011639;28;20111;-71
2024/03/23 07:11:57;;;;;;;2.67;1.10;;;7.60;99.90;;;;;;5012637;28;20057;-70
2024/03/23 07:14:23;;;;;;;10.57;1.33;;;7.70;99.90;;;;;;5017911;28;20041;-71
2024/03/23 07:16:49;;;;;;;9.55;1.77;;;7.90;99.90;;;;;;5012976;28;20126;-71
2024/03/23 07:19:16;;;;;;;13.30;1.92;;;8.10;99.90;;;;;;5016041;28;20038;-72
2024/03/23 07:21:43;;;;;;;12.32;1.30;;;8.20;99.90;;;;;;5010779;28;20125;-72
2024/03/23 07:24:09;;;;;;;9.32;1.15;;;8.30;99.90;;;;;;5009099;28;20052;-72
2024/03/23 07:26:35;;;;;;;11.25;1.65;;;8.50;99.90;;;;;;5011803;28;20088;-72
2024/03/23 07:29:00;;;;;;;7.70;1.10;;;8.60;99.90;;;;;;4999383;28;20511;-71
2024/03/23 07:31:26;;;;;;;9.88;1.00;;;8.60;99.90;;;;;;5006656;28;20416;-72
2024/03/23 07:33:51;;;;;;;6.35;1.05;;;8.60;99.90;;;;;;5010932;28;20718;-72
2024/03/23 07:36:17;;;;;;;7.63;1.13;;;8.70;99.90;;;;;;4998880;28;20330;-71
2024/03/23 07:38:46;;;;;;;5.93;1.02;;;8.80;99.90;;;;;;4997493;28;20026;-72
2024/03/23 07:41:19;;;;;;;10.52;1.08;;;9.00;99.90;;;;;;5004105;28;20060;-72
2024/03/23 07:43:45;;;;;;;6.90;1.98;;;9.00;99.90;;;;;;5009179;28;20562;-70
2024/03/23 07:46:14;;;;;;;7.60;1.20;;;9.00;99.90;;;;;;4982806;28;20146;-72
2024/03/23 07:48:42;;;;;;;7.32;0.73;;;9.00;99.90;;;;;;5007681;28;20450;-72
2024/03/23 07:51:15;;;;;;;6.43;0.90;;;8.90;99.90;;;;;;5007584;28;20052;-72
2024/03/23 07:53:44;;;;;;;7.20;1.38;;;8.90;99.90;;;;;;4997328;28;20037;-72
2024/03/23 07:56:10;;;;;;;6.00;1.40;;;8.90;99.90;;;;;;5005419;28;20038;-71
2024/03/23 07:58:36;;;;;;;6.07;1.42;;;9.00;99.90;;;;;;5005497;28;20039;-72
2024/03/23 08:01:10;;;;;;;7.90;0.93;;;9.10;99.90;;;;;;4998456;28;20120;-72
2024/03/23 08:03:37;;;;;;;7.40;1.15;;;9.10;99.90;;;;;;5009302;28;20718;-71
2024/03/23 08:06:14;;;;;;;13.90;1.23;;;9.10;99.90;;;;;;5006810;28;20414;-70
2024/03/23 08:08:41;;;;;;;12.63;1.40;;;9.30;99.90;;;;;;5002069;28;20125;-72
2024/03/23 08:11:07;;;;;;;7.57;1.23;;;9.30;99.90;;;;;;4994344;28;20045;-72
2024/03/23 08:13:34;;;;;;;14.68;1.80;;;9.50;99.90;;;;;;5008588;28;20033;-72
2024/03/23 08:16:01;;;;;;;7.22;1.45;;;9.50;99.90;;;;;;5002499;28;20096;-72
2024/03/23 08:18:27;;;;;;;7.47;0.73;;;9.40;99.90;;;;;;5009853;28;20125;-72
2024/03/23 08:21:03;;;;;;;8.43;1.02;;;9.20;99.90;;;;;;5006935;28;20227;-71
2024/03/23 08:23:30;;;;;;;5.90;1.10;;;9.00;99.90;;;;;;5002850;28;20164;-72
2024/03/23 08:26:02;;;;;;;7.03;1.17;;;8.90;99.90;;;;;;5004455;28;20030;-71
2024/03/23 08:28:28;;;;;;;12.38;1.50;;;8.90;99.90;;;;;;5008400;28;20057;-72
2024/03/23 08:30:55;;;;;;;5.90;0.68;;;8.80;99.90;;;;;;4995080;28;20491;-71
2024/03/23 08:33:21;;;;;;;3.92;0.65;;;8.80;99.90;;;;;;4980843;28;20122;-73
2024/03/23 08:35:54;;;;;;;6.13;1.20;;;8.80;99.90;;;;;;4996537;28;20165;-72
2024/03/23 08:38:20;;;;;;;5.65;0.70;;;8.80;99.90;;;;;;5005185;28;20048;-72
2024/03/23 08:40:45;;;;;;;5.80;1.00;;;8.80;99.90;;;;;;5004265;28;20611;-72
2024/03/23 08:43:11;;;;;;;6.28;0.80;;;8.70;99.90;;;;;;5002467;28;20037;-72
2024/03/23 08:45:36;;;;;;;9.20;0.80;;;8.80;99.90;;;;;;5009625;28;20045;-70
2024/03/23 08:48:02;;;;;;;8.52;1.48;;;8.80;99.90;;;;;;4992891;28;20095;-71
2024/03/23 08:50:28;;;;;;;15.32;1.17;;;8.80;99.90;;;;;;5010419;28;20045;-72
2024/03/23 08:52:53;;;;;;;12.00;1.92;;;8.80;99.90;;;;;;5011607;28;20037;-72
2024/03/23 08:55:19;;;;;;;4.15;0.70;;;8.90;99.90;;;;;;5010417;28;20034;-72
2024/03/23 08:57:44;;;;;;;4.70;0.70;;;8.90;99.90;;;;;;5010435;28;20527;-71
2024/03/23 09:00:11;;;;;;;7.65;0.77;;;9.00;99.90;;;;;;5011891;28;20515;-72
2024/03/23 09:02:37;;;;;;;10.82;1.88;;;9.10;99.90;;;;;;5011678;28;20136;-71
2024/03/23 09:05:04;;;;;;;3.80;0.75;;;9.40;99.90;;;;;;5010075;28;20135;-71
2024/03/23 09:07:32;;;;;;;4.10;1.10;;;9.50;99.90;;;;;;5004191;28;20115;-72
2024/03/23 09:09:58;;;;;;;4.88;0.70;;;9.40;99.90;;;;;;5010103;28;20088;-72
2024/03/23 09:12:24;;;;;;;11.35;1.13;;;9.30;99.90;;;;;;5014176;28;20562;-72
2024/03/23 09:14:50;;;;;;;6.72;0.88;;;9.40;99.90;;;;;;5003311;28;20180;-72
2024/03/23 09:17:16;;;;;;;5.80;1.45;;;9.60;99.90;;;;;;5003024;28;20104;-72
2024/03/23 09:19:41;;;;;;;5.05;1.42;;;9.90;99.90;;;;;;5009545;28;20539;-72
2024/03/23 09:22:07;;;;;;;7.72;1.48;;;10.30;99.90;;;;;;5001169;28;20846;-72
2024/03/23 09:24:33;;;;;;;11.85;1.00;;;10.60;99.90;;;;;;5006754;28;20034;-72
2024/03/23 09:26:58;;;;;;;11.88;0.82;;;10.50;99.90;;;;;;5008050;28;20396;-72
2024/03/23 09:29:24;;;;;;;5.43;1.48;;;10.60;99.90;;;;;;5012234;28;20587;-71
2024/03/23 09:31:50;;;;;;;4.78;1.00;;;10.70;99.90;;;;;;5010523;28;23019;-72
2024/03/23 09:34:15;;;;;;;4.30;1.27;;;10.40;99.90;;;;;;5013755;28;20388;-72
2024/03/23 09:36:41;;;;;;;4.10;0.60;;;10.10;99.90;;;;;;5016041;28;20578;-70
2024/03/23 09:39:09;;;;;;;5.90;0.80;;;9.90;99.90;;;;;;5008090;28;20045;-71
2024/03/23 09:41:35;;;;;;;15.05;2.03;;;9.70;99.90;;;;;;5016982;28;20064;-74
2024/03/23 09:44:01;;;;;;;6.75;1.15;;;9.50;99.90;;;;;;5015287;28;20065;-72
2024/03/23 09:46:28;;;;;;;9.27;1.98;;;9.40;99.90;;;;;;5012428;28;20030;-74
2024/03/23 09:48:56;;;;;;;4.40;0.50;;;9.30;99.90;;;;;;5013736;28;20099;-72
2024/03/23 09:51:22;;;;;;;3.92;0.75;;;9.40;99.90;;;;;;5010766;28;20565;-73
2024/03/23 09:53:49;;;;;;;10.68;0.75;;;9.60;99.90;;;;;;4995791;28;20045;-71
2024/03/23 09:56:17;;;;;;;8.65;0.75;;;10.10;99.90;;;;;;5011643;28;20045;-71
2024/03/23 09:58:42;;;;;;;7.30;1.55;;;10.40;99.90;;;;;;5012852;28;20494;-71
2024/03/23 10:01:09;;;;;;;4.50;0.73;;;10.60;99.90;;;;;;5011371;28;20049;-71
2024/03/23 10:03:45;;;;;;;4.55;1.17;;;10.70;99.90;;;;;;5017264;28;20044;-72
2024/03/23 10:06:11;;;;;;;3.60;0.57;;;10.60;99.90;;;;;;5007879;28;20081;-71
2024/03/23 10:08:36;;;;;;;5.53;0.65;;;10.60;99.90;;;;;;5011841;28;20068;-71
2024/03/23 10:11:16;;;;;;;3.45;0.65;;;10.40;99.90;;;;;;5013183;28;20124;-70
2024/03/23 10:13:43;;;;;;;9.65;1.33;;;10.40;99.90;;;;;;5006846;28;20045;-71
2024/03/23 10:16:10;;;;;;;6.38;0.63;;;10.40;99.90;;;;;;5014024;28;20033;-71
2024/03/23 10:18:39;;;;;;;7.30;1.15;;;10.30;99.90;;;;;;5018675;28;20030;-71
2024/03/23 10:21:05;;;;;;;9.07;0.80;;;10.30;99.90;;;;;;5005707;28;20411;-70
2024/03/23 10:23:31;;;;;;;6.55;1.10;;;10.30;99.90;;;;;;5010460;28;20374;-71
2024/03/23 10:26:18;;;;;;;7.22;0.88;;;10.30;99.90;;;;;;5012743;28;20034;-70
2024/03/23 10:29:17;;;;;;;6.72;1.10;;;10.00;99.90;;;;;;5013427;28;20042;-73
2024/03/23 10:31:43;;;;;;;7.95;1.23;;;9.60;99.90;;;;;;5012455;28;20037;-73
2024/03/23 10:34:12;;;;;;;4.22;0.60;;;9.00;99.90;;;;;;5010517;28;20039;-72
2024/03/23 10:36:41;;;;;;;2.45;0.63;;;8.60;99.90;;;;;;5012956;28;20040;-71
2024/03/23 10:39:07;;;;;;;3.45;0.70;;;8.40;99.90;;;;;;5011136;28;20029;-69
2024/03/23 10:41:33;;;;;;;5.25;0.77;;;8.30;99.90;;;;;;5009934;28;20033;-71
2024/03/23 10:43:59;;;;;;;6.82;1.35;;;8.30;99.90;;;;;;5017068;28;20094;-71
2024/03/23 10:46:25;;;;;;;2.85;0.43;;;8.40;99.90;;;;;;5012631;28;20045;-71
2024/03/23 10:48:51;;;;;;;8.52;1.75;;;8.40;99.90;;;;;;4996352;28;20030;-72
2024/03/23 10:51:17;;;;;;;7.47;0.60;;;8.40;99.90;;;;;;5008701;28;20132;-71
2024/03/23 10:53:42;;;;;;;3.30;0.98;;;8.40;99.90;;;;;;5011268;28;20067;-72
2024/03/23 10:56:09;;;;;;;10.00;0.93;;;8.40;99.90;;;;;;5006670;28;20542;-71
2024/03/23 10:58:41;;;;;;;13.50;1.52;;;8.40;99.90;;;;;;4993700;28;20125;-71
2024/03/23 11:01:07;;;;;;;8.80;0.98;;;8.70;99.90;;;;;;5001490;28;20837;-71
2024/03/23 11:03:38;;;;;;;6.25;0.65;;;9.00;99.90;;;;;;5002126;28;20052;-71
2024/03/23 11:06:10;;;;;;;5.68;0.80;;;9.20;99.90;;;;;;4979412;28;20041;-72
2024/03/23 11:08:37;;;;;;;11.27;1.80;;;9.30;99.90;;;;;;5011097;28;20025;-71
2024/03/23 11:11:20;;;;;;;10.43;1.33;;;9.30;99.90;;;;;;4981545;28;20102;-70
2024/03/23 11:13:50;;;;;;;7.28;1.10;;;9.20;99.90;;;;;;5006787;28;20039;-70
2024/03/23 11:16:17;;;;;;;5.55;1.15;;;9.10;99.90;;;;;;4995598;28;20039;-71
2024/03/23 11:18:44;;;;;;;6.00;0.70;;;9.10;99.90;;;;;;5004288;28;20036;-71
2024/03/23 11:21:12;;;;;;;8.60;1.55;;;9.10;99.90;;;;;;5006329;28;20040;-71
2024/03/23 11:23:37;;;;;;;3.58;0.65;;;9.00;99.90;;;;;;5005457;28;20033;-70
2024/03/23 11:26:07;;;;;;;16.60;0.93;;;8.80;99.90;;;;;;5011172;28;20048;-69
2024/03/23 11:28:33;;;;;;;6.80;1.27;;;8.70;99.90;;;;;;5007262;28;20029;-72
2024/03/23 11:30:58;;;;;;;8.05;1.13;;;8.70;99.90;;;;;;5011825;28;20041;-71
2024/03/23 11:33:24;;;;;;;7.95;0.80;;;8.70;99.90;;;;;;5009415;28;20100;-71
2024/03/23 11:35:51;;;;;;;9.00;0.98;;;8.80;99.90;;;;;;5013463;28;20115;-72
2024/03/23 11:38:18;;;;;;;6.38;1.08;;;8.90;99.90;;;;;;5012433;28;20034;-72
2024/03/23 11:40:48;;;;;;;4.13;0.93;;;8.90;99.90;;;;;;5006420;28;20072;-72
2024/03/23 11:43:19;;;;;;;10.45;2.95;;;8.90;99.90;;;;;;5012010;28;20030;-72
2024/03/23 11:45:52;;;;;;;6.20;1.05;;;8.90;99.90;;;;;;5013581;28;20442;-71
2024/03/23 11:48:20;;;;;;;10.25;1.65;;;9.10;99.90;;;;;;5014016;28;20062;-72
2024/03/23 11:50:47;;;;;;;6.97;1.45;;;9.40;99.90;;;;;;5012955;28;20111;-69
2024/03/23 11:53:22;;;;;;;6.03;1.38;;;9.60;99.90;;;;;;5017908;28;20121;-72
2024/03/23 11:55:50;;;;;;;7.05;1.20;;;9.70;99.90;;;;;;5014844;28;20506;-72
2024/03/23 11:58:17;;;;;;;5.85;1.25;;;9.60;99.90;;;;;;5010885;28;20061;-69
2024/03/23 12:00:49;;;;;;;14.18;1.65;;;9.50;99.90;;;;;;5010938;28;20088;-72
2024/03/23 12:03:17;;;;;;;7.43;1.50;;;9.50;99.90;;;;;;5014588;28;20133;-71
2024/03/23 12:05:49;;;;;;;4.78;0.65;;;9.40;99.90;;;;;;5015754;28;20037;-72
2024/03/23 12:08:23;;;;;;;6.40;0.80;;;9.40;99.90;;;;;;5016278;28;20133;-73
2024/03/23 12:10:53;;;;;;;5.65;1.20;;;9.50;99.90;;;;;;5013102;28;20041;-72
2024/03/23 12:13:22;;;;;;;6.88;0.80;;;9.80;99.90;;;;;;5012846;28;20066;-73
2024/03/23 12:15:51;;;;;;;4.13;0.65;;;10.10;99.90;;;;;;5007453;28;20041;-69
2024/03/23 12:18:17;;;;;;;7.38;1.05;;;10.30;99.90;;;;;;5001704;28;20553;-70
2024/03/23 12:20:43;;;;;;;7.05;1.02;;;10.40;99.90;;;;;;5006863;28;20034;-70
2024/03/23 12:23:11;;;;;;;7.47;1.05;;;10.40;99.90;;;;;;5011764;28;20045;-72
2024/03/23 12:25:38;;;;;;;9.02;2.03;;;10.40;99.90;;;;;;4986456;28;20112;-70
2024/03/23 12:28:08;;;;;;;8.50;1.42;;;10.40;99.90;;;;;;5010552;28;20055;-70
2024/03/23 12:30:39;;;;;;;11.15;1.52;;;10.40;99.90;;;;;;5002702;28;20045;-73
2024/03/23 12:33:06;;;;;;;5.32;1.30;;;10.30;99.90;;;;;;4981863;28;20048;-71
2024/03/23 12:35:31;;;;;;;6.78;1.65;;;10.20;99.90;;;;;;5002090;28;20428;-72
2024/03/23 12:37:57;;;;;;;5.00;1.17;;;10.20;99.90;;;;;;5008186;28;20209;-70
2024/03/23 12:40:23;;;;;;;7.03;0.63;;;10.20;99.90;;;;;;5003697;28;20076;-70
2024/03/23 12:42:48;;;;;;;6.93;0.90;;;10.20;99.90;;;;;;5004131;28;20143;-70
2024/03/23 12:45:14;;;;;;;4.45;0.95;;;10.20;99.90;;;;;;5000342;28;20033;-71
2024/03/23 12:47:40;;;;;;;4.70;0.65;;;10.10;99.90;;;;;;5004489;28;20492;-70